Eagleville, Tennessee
Current Conditions -  °F | °C
As of 10:53 AM on Saturday 25 Oct 2014 (Local Time) from KBNA Reporting Station
Broken Clouds Broken Clouds  
Wind Chill: 67°   Ceiling: 5500
Heat Index: 67°   Visibility: 10mi
Dew Point: 54°   Wind: 5mph
Humidity: 63%   Direction: 180°S
Pressure: 30.09"   Gusts: NA
Location:  35.74°N, 86.65°W
Report Text: KBNA 251553Z 18004KT 10SM SCT046 BKN055 19/12 A3009 RMK AO2 SLP185 T01940122
Loading
Personal Weather Stations






























Interactive Weather Map
Tropical Storm Tracking
New forecast layout! Learn more

10-Day Weather Forecast

Advertisements
Track Severe Weather on mobile